Latest  Newer  Older  Last 2 hours slideshow  Last 24 hours slideshow  Refresh every 5 minutes 
Current image  Latest image  Rain/snow radar  Cloud coverage sat images 

All time is UTC (add 2 hours to UTC in wintertime, 3 hours to UTC in DST for Latvia local time)

2021/11/29 22:20 EVRA 292220Z 36014KT 2300 SN SCT008 BKN014 OVC016 M01/M02 Q0988 NOSIG
2021/11/29 22:20 EVLA 292220Z AUTO 01004KT 310V060 9999 -RASN FEW005/// SCT013/// BKN015/// M01/M01 Q0993
2021/11/29 22:20 EVVA 292220Z AUTO 35017KT 9999 OVC023 01/M02 Q0993
2021/11/29 22:20 EYKA 292220Z 29005KT 250V320 3100 -SN BR OVC006 M01/M03 Q0987
2021/11/29 22:20 EYPA 292220Z 01011KT 330V030 9999 -SN BKN025 M01/M03 Q0994
2021/11/29 22:20 EYSA 292220Z 32020KT 9999 -SN DRSN OVC009 M02/M03 Q0989 NOSIG
2021/11/29 22:20 EYVI 292220Z 31011KT 280V340 4100 -SN BR OVC006 M03/M05 Q0984 TEMPO BKN010



2021/11/29 22:20 EETN 292220Z 01009KT 330V040 2100 SN DRSN BKN009 OVC014 M03/M05 Q0991 NOSIG

   RIGA AIRPORT     EVRA               56 55N  023 58E   10   X     T          6 LV
   LIEPAJA INTL     EVLA        26406  56 31N  021 06E    4   X                8 LV
   VENTPILS         EVVA               57 21N  021 33E    6   X                8 LV
   KAUNAS           EYKA               54 54N  023 55E   77   X     T          6 LT
   PALANGA INTL     EYPA               55 55N  021 03E   10   X                6 LT
   SIAULIAI INTL    EYSA               55 54N  023 24E  135   X     T          6 LT
   VILNIUS INTL     EYVI        26730  54 38N  025 17E  197   X     T          6 LT
   KARDLA           EEKA        26116  58 59N  022 50E    4   X                8 EE
   KURESSAARE       EEKE               58 14N  022 31E    4   X                8 EE
   PARNU            EEPU               58 25N  024 28E   14   X                8 EE
   TALLINN          EETN        26038  59 24N  024 49E   40   X     T          8 EE
   TARTU            EETU               58 19N  026 41E   67   X                8 EE